Time;durP1;ratioP1;P1;durP2;ratioP2;P2;SDS_P1;SDS_P2;PMS_P1;PMS_P2;Temp;Humidity;BMP_temperature;BMP_pressure;BME280_temperature;BME280_humidity;BME280_pressure;Samples;Min_cycle;Max_cycle;Signal;HPM_P1;HPM_P2
2022/04/28 00:01:28;0.00;0.00;0.62;0.00;0.00;0.62;1.27;0.80;;;28.00;22.70;;;;;;2247957;61;20392;-64
2022/04/28 00:04:12;0.00;0.00;0.62;0.00;0.00;0.62;1.50;0.87;;;28.00;22.70;;;;;;2247470;61;20471;-63
2022/04/28 00:06:58;0.00;0.00;0.62;0.00;0.00;0.62;2.17;1.10;;;27.90;22.70;;;;;;2248393;61;20371;-63
2022/04/28 00:09:43;0.00;0.00;0.62;0.00;0.00;0.62;1.77;1.10;;;27.90;22.70;;;;;;2248336;61;20388;-65
2022/04/28 00:12:27;0.00;0.00;0.62;0.00;0.00;0.62;1.47;0.80;;;27.90;22.70;;;;;;2246866;61;20407;-62
2022/04/28 00:15:12;0.00;0.00;0.62;0.00;0.00;0.62;1.40;0.90;;;27.90;22.70;;;;;;2248085;61;20394;-64
2022/04/28 00:17:57;0.00;0.00;0.62;0.00;0.00;0.62;1.73;1.20;;;27.90;22.70;;;;;;2248115;61;20785;-61
2022/04/28 00:20:42;0.00;0.00;0.62;0.00;0.00;0.62;1.50;0.90;;;27.90;22.70;;;;;;2247847;61;20442;-63
2022/04/28 00:23:27;0.00;0.00;0.62;0.00;0.00;0.62;1.40;0.90;;;27.90;22.70;;;;;;2248874;61;20372;-62
2022/04/28 00:26:13;0.00;0.00;0.62;0.00;0.00;0.62;2.60;1.20;;;28.00;22.80;;;;;;2248023;61;20883;-64
2022/04/28 00:28:57;0.00;0.00;0.62;0.00;0.00;0.62;1.30;0.87;;;27.90;22.70;;;;;;2248972;61;20391;-63
2022/04/28 00:31:42;0.00;0.00;0.62;0.00;0.00;0.62;1.30;1.00;;;27.90;22.70;;;;;;2248161;61;20472;-65
2022/04/28 00:34:26;0.00;0.00;0.62;0.00;0.00;0.62;1.40;0.80;;;27.90;22.70;;;;;;2247795;61;20456;-63
2022/04/28 00:37:11;0.00;0.00;0.62;0.00;0.00;0.62;1.50;0.90;;;27.90;22.70;;;;;;2248574;61;20883;-63
2022/04/28 00:39:57;0.00;0.00;0.62;0.00;0.00;0.62;1.40;0.70;;;27.90;22.80;;;;;;2248650;61;20817;-61
2022/04/28 00:42:42;0.00;0.00;0.62;0.00;0.00;0.62;2.10;0.87;;;27.90;22.80;;;;;;2248057;61;20391;-61
2022/04/28 00:45:26;0.00;0.00;0.62;0.00;0.00;0.62;1.50;1.00;;;27.90;22.80;;;;;;2249435;61;20431;-63
2022/04/28 00:51:16;0.00;0.00;0.62;0.00;0.00;0.62;1.90;1.27;;;27.90;22.80;;;;;;2250269;61;20402;-64
2022/04/28 00:54:03;0.00;0.00;0.62;0.00;0.00;0.62;2.20;1.63;;;27.90;22.60;;;;;;2249008;61;20456;-63
2022/04/28 00:56:49;0.00;0.00;0.62;0.00;0.00;0.62;2.17;1.40;;;27.90;22.40;;;;;;2247119;61;20372;-65
2022/04/28 00:59:38;0.00;0.00;0.62;0.00;0.00;0.62;2.23;1.70;;;27.90;22.30;;;;;;2249182;61;20372;-64
2022/04/28 01:02:24;0.00;0.00;0.62;0.00;0.00;0.62;2.70;1.73;;;27.90;22.10;;;;;;2247875;61;20388;-63
2022/04/28 01:05:10;0.00;0.00;0.62;0.00;0.00;0.62;1.83;1.50;;;27.80;21.90;;;;;;2248026;61;20435;-65
2022/04/28 01:07:55;0.00;0.00;0.62;0.00;0.00;0.62;6.63;1.93;;;27.80;21.90;;;;;;2248475;61;20427;-65
2022/04/28 01:10:40;0.00;0.00;0.62;0.00;0.00;0.62;2.03;1.80;;;27.80;21.80;;;;;;2246946;61;20795;-65
2022/04/28 01:13:26;0.00;0.00;0.62;0.00;0.00;0.62;2.67;1.60;;;27.80;21.70;;;;;;2248266;61;20778;-65
2022/04/28 01:16:26;0.00;0.00;0.62;0.00;0.00;0.62;2.73;2.20;;;27.80;21.70;;;;;;2248522;61;20387;-65
2022/04/28 01:19:11;0.00;0.00;0.62;0.00;0.00;0.62;2.37;1.67;;;27.80;21.70;;;;;;2247395;61;20418;-65
2022/04/28 01:21:58;0.00;0.00;0.62;0.00;0.00;0.62;3.03;2.27;;;27.80;21.60;;;;;;2247744;61;20442;-64
2022/04/28 01:24:43;0.00;0.00;0.62;0.00;0.00;0.62;3.00;1.83;;;27.70;21.50;;;;;;2248279;61;20456;-64
2022/04/28 01:27:29;0.00;0.00;0.62;0.00;0.00;0.62;2.70;2.10;;;27.70;21.50;;;;;;2248437;61;20896;-65
2022/04/28 01:30:15;0.00;0.00;0.62;0.00;0.00;0.62;3.00;2.10;;;27.70;21.50;;;;;;2247892;61;20403;-65
2022/04/28 01:33:06;0.00;0.00;0.62;0.00;0.00;0.62;2.80;1.93;;;27.70;21.40;;;;;;2246740;61;20419;-64
2022/04/28 01:35:51;0.00;0.00;0.62;0.00;0.00;0.62;3.03;2.17;;;27.60;21.40;;;;;;2248415;61;20375;-65
2022/04/28 01:38:38;0.00;0.00;0.62;0.00;0.00;0.62;2.93;2.63;;;27.60;21.40;;;;;;2248242;61;20963;-64
2022/04/28 01:41:22;0.00;0.00;0.62;0.00;0.00;0.62;2.50;2.03;;;27.60;21.30;;;;;;2246895;61;20407;-65
2022/04/28 01:44:07;0.00;0.00;0.62;0.00;0.00;0.62;3.00;2.23;;;27.50;21.20;;;;;;2248674;61;20435;-64
2022/04/28 01:46:51;0.00;0.00;0.62;0.00;0.00;0.62;3.73;2.33;;;27.50;21.20;;;;;;2248414;61;20384;-65
2022/04/28 01:49:55;0.00;0.00;0.62;0.00;0.00;0.62;3.10;2.17;;;27.50;21.20;;;;;;2248378;61;20430;-64
2022/04/28 01:56:38;0.00;0.00;0.62;0.00;0.00;0.62;2.93;2.17;;;27.40;21.10;;;;;;2247347;61;20483;-64
2022/04/28 01:59:49;0.00;0.00;0.62;0.00;0.00;0.62;2.83;1.80;;;27.40;21.10;;;;;;2248851;61;20411;-64
2022/04/28 02:02:36;0.00;0.00;0.62;0.00;0.00;0.62;2.77;2.00;;;27.30;21.00;;;;;;2247411;61;20396;-65
2022/04/28 02:05:21;0.00;0.00;0.62;0.00;0.00;0.62;2.40;2.20;;;27.30;21.00;;;;;;2248675;61;20367;-62
2022/04/28 02:08:06;0.00;0.00;0.62;0.00;0.00;0.62;2.37;2.17;;;27.20;21.00;;;;;;2248762;61;20771;-64
2022/04/28 02:10:50;0.00;0.00;0.62;0.00;0.00;0.62;3.53;2.73;;;27.20;20.90;;;;;;2246712;61;20368;-64
2022/04/28 02:14:03;0.00;0.00;0.62;0.00;0.00;0.62;3.63;2.53;;;27.20;21.00;;;;;;2247023;61;20400;-64
2022/04/28 02:17:07;0.00;0.00;0.62;0.00;0.00;0.62;2.50;2.00;;;27.20;20.90;;;;;;2247712;61;20843;-64
2022/04/28 02:19:54;0.00;0.00;0.62;0.00;0.00;0.62;4.40;2.30;;;27.10;20.80;;;;;;2253965;61;20379;-63
2022/04/28 02:22:39;0.00;0.00;0.62;0.00;0.00;0.62;3.20;2.30;;;27.10;20.90;;;;;;2250235;61;20863;-63
2022/04/28 02:25:26;0.00;0.00;0.62;0.00;0.00;0.62;2.30;2.10;;;27.00;20.80;;;;;;2246964;61;20376;-63
2022/04/28 02:28:11;0.00;0.00;0.62;0.00;0.00;0.62;4.23;2.20;;;27.00;20.80;;;;;;2248418;61;20923;-63
2022/04/28 02:30:58;0.00;0.00;0.62;0.00;0.00;0.62;3.40;2.20;;;27.00;20.80;;;;;;2247424;61;20481;-63
2022/04/28 02:33:42;0.00;0.00;0.62;0.00;0.00;0.62;2.87;2.03;;;27.00;20.80;;;;;;2247464;61;20780;-63
2022/04/28 02:36:31;0.00;0.00;0.62;0.00;0.00;0.62;3.07;2.77;;;27.00;20.90;;;;;;2248217;61;20382;-63
2022/04/28 02:39:17;0.00;0.00;0.62;0.00;0.00;0.62;2.77;2.57;;;26.90;20.80;;;;;;2247424;61;20430;-63
2022/04/28 02:42:06;0.00;0.00;0.62;0.00;0.00;0.62;2.50;2.30;;;26.90;20.80;;;;;;2247943;61;20447;-63
2022/04/28 02:44:50;0.00;0.00;0.62;0.00;0.00;0.62;2.47;2.20;;;26.80;20.80;;;;;;2253727;61;20907;-64
2022/04/28 02:47:37;0.00;0.00;0.62;0.00;0.00;0.62;3.67;2.07;;;26.80;20.80;;;;;;2247019;61;20503;-63
2022/04/28 02:50:22;0.00;0.00;0.62;0.00;0.00;0.62;3.83;2.53;;;26.80;20.80;;;;;;2247595;61;20863;-65
2022/04/28 02:53:07;0.00;0.00;0.62;0.00;0.00;0.62;2.73;2.30;;;26.80;20.80;;;;;;2247706;61;20411;-64
2022/04/28 02:55:58;0.00;0.00;0.62;0.00;0.00;0.62;3.00;2.27;;;26.70;20.70;;;;;;2247422;61;20404;-65
2022/04/28 02:58:43;0.00;0.00;0.62;0.00;0.00;0.62;4.50;2.90;;;26.70;20.70;;;;;;2248101;61;20383;-64
2022/04/28 03:01:28;0.00;0.00;0.62;0.00;0.00;0.62;4.70;2.50;;;26.60;21.20;;;;;;2246858;61;20499;-64
2022/04/28 03:04:14;0.00;0.00;0.62;0.00;0.00;0.62;2.50;2.10;;;26.60;20.70;;;;;;2248332;61;20443;-63
2022/04/28 03:13:07;0.00;0.00;0.62;0.00;0.00;0.62;4.13;3.13;;;26.50;20.70;;;;;;2247811;61;20371;-64
2022/04/28 03:15:52;0.00;0.00;0.62;0.00;0.00;0.62;2.70;2.50;;;26.50;20.70;;;;;;2247724;61;20378;-63
2022/04/28 03:18:41;0.00;0.00;0.62;0.00;0.00;0.62;3.20;2.40;;;26.40;20.70;;;;;;2247796;61;20356;-63
2022/04/28 03:21:27;0.00;0.00;0.62;0.00;0.00;0.62;2.43;2.23;;;26.40;20.70;;;;;;2247853;61;20387;-64
2022/04/28 03:24:12;0.00;0.00;0.62;0.00;0.00;0.62;3.03;2.73;;;26.40;20.70;;;;;;2246884;61;20452;-63
2022/04/28 03:26:56;0.00;0.00;0.62;0.00;0.00;0.62;2.90;2.30;;;26.30;20.70;;;;;;2247832;61;20451;-64
2022/04/28 03:29:41;0.00;0.00;0.62;0.00;0.00;0.62;2.57;2.13;;;26.30;20.60;;;;;;2247940;61;21002;-63
2022/04/28 03:32:26;0.00;0.00;0.62;0.00;0.00;0.62;3.50;2.77;;;26.30;20.70;;;;;;2246349;61;20447;-64
2022/04/28 03:35:21;0.00;0.00;0.62;0.00;0.00;0.62;3.80;2.27;;;26.30;20.70;;;;;;2247987;61;20356;-65
2022/04/28 03:38:11;0.00;0.00;0.62;0.00;0.00;0.62;2.63;2.33;;;26.20;20.60;;;;;;2247406;61;20371;-65
2022/04/28 03:40:56;0.00;0.00;0.62;0.00;0.00;0.62;3.13;2.70;;;26.20;20.60;;;;;;2247373;61;20526;-64
2022/04/28 03:43:40;0.00;0.00;0.62;0.00;0.00;0.62;2.73;2.30;;;26.20;20.60;;;;;;2247977;61;20367;-62
2022/04/28 03:46:25;0.00;0.00;0.62;0.00;0.00;0.62;3.80;2.53;;;26.10;20.60;;;;;;2247178;61;20877;-63
2022/04/28 03:49:10;0.00;0.00;0.62;0.00;0.00;0.62;3.20;2.87;;;26.10;20.60;;;;;;2247890;61;20955;-64
2022/04/28 03:51:55;0.00;0.00;0.62;0.00;0.00;0.62;2.87;2.43;;;26.10;20.70;;;;;;2247996;61;20919;-64
2022/04/28 03:54:41;0.00;0.00;0.62;0.00;0.00;0.62;4.40;3.00;;;26.00;20.60;;;;;;2247772;61;20887;-64
2022/04/28 03:57:27;0.00;0.00;0.62;0.00;0.00;0.62;3.47;2.40;;;26.00;20.60;;;;;;2248707;61;20932;-64
2022/04/28 04:00:13;0.00;0.00;0.62;0.00;0.00;0.62;2.40;2.20;;;26.00;20.60;;;;;;2248166;61;20378;-65
2022/04/28 04:02:58;0.00;0.00;0.62;0.00;0.00;0.62;3.10;2.30;;;25.90;20.60;;;;;;2248870;61;20959;-65
2022/04/28 04:05:44;0.00;0.00;0.62;0.00;0.00;0.62;4.97;2.60;;;25.90;20.60;;;;;;2248710;61;20379;-63
2022/04/28 04:08:29;0.00;0.00;0.62;0.00;0.00;0.62;2.77;2.47;;;25.90;20.60;;;;;;2247389;61;20419;-64
2022/04/28 04:11:23;0.00;0.00;0.62;0.00;0.00;0.62;2.97;2.33;;;25.80;20.60;;;;;;2248499;61;20392;-64
2022/04/28 04:14:08;0.00;0.00;0.62;0.00;0.00;0.62;2.67;2.33;;;25.80;20.60;;;;;;2248576;61;20367;-63
2022/04/28 04:16:53;0.00;0.00;0.62;0.00;0.00;0.62;3.00;2.70;;;25.80;20.60;;;;;;2247741;61;20375;-63
2022/04/28 04:19:44;0.00;0.00;0.62;0.00;0.00;0.62;2.87;2.57;;;25.80;20.60;;;;;;2251580;61;20896;-63
2022/04/28 04:22:28;0.00;0.00;0.62;0.00;0.00;0.62;2.30;1.93;;;25.80;20.60;;;;;;2247758;61;20782;-63
2022/04/28 04:25:13;0.00;0.00;0.62;0.00;0.00;0.62;3.07;2.50;;;25.70;20.60;;;;;;2248235;61;20768;-65
2022/04/28 04:27:59;0.00;0.00;0.62;0.00;0.00;0.62;2.70;2.00;;;25.70;20.60;;;;;;2248545;61;20363;-65
2022/04/28 04:34:24;0.00;0.00;0.62;0.00;0.00;0.62;3.47;2.60;;;25.60;20.60;;;;;;2248456;61;20372;-65
2022/04/28 04:37:08;0.00;0.00;0.62;0.00;0.00;0.62;2.40;2.03;;;25.60;20.70;;;;;;2248474;61;20387;-65
2022/04/28 04:39:53;0.00;0.00;0.62;0.00;0.00;0.62;4.57;2.77;;;25.60;20.70;;;;;;2248082;61;20471;-63
2022/04/28 04:42:38;0.00;0.00;0.62;0.00;0.00;0.62;3.20;2.60;;;25.50;20.60;;;;;;2248130;61;20835;-65
2022/04/28 04:45:24;0.00;0.00;0.62;0.00;0.00;0.62;2.60;2.20;;;25.50;20.60;;;;;;2247499;61;20796;-64
2022/04/28 04:48:23;0.00;0.00;0.62;0.00;0.00;0.62;3.60;2.60;;;25.50;20.70;;;;;;2248431;61;20423;-65
2022/04/28 04:51:09;0.00;0.00;0.62;0.00;0.00;0.62;3.43;2.60;;;25.50;20.70;;;;;;2247995;61;20475;-65
2022/04/28 04:54:04;0.00;0.00;0.62;0.00;0.00;0.62;3.33;2.30;;;25.50;20.70;;;;;;2247955;61;20870;-65
2022/04/28 04:56:49;0.00;0.00;0.62;0.00;0.00;0.62;2.97;2.50;;;25.50;20.70;;;;;;2248468;61;20467;-64
2022/04/28 04:59:34;0.00;0.00;0.62;0.00;0.00;0.62;2.90;2.50;;;25.40;20.70;;;;;;2248087;61;20359;-65
2022/04/28 05:02:23;0.00;0.00;0.62;0.00;0.00;0.62;5.73;2.73;;;25.40;20.70;;;;;;2250121;61;20387;-66
2022/04/28 05:05:44;0.00;0.00;0.62;0.00;0.00;0.62;3.20;2.67;;;25.40;20.70;;;;;;2239255;61;20398;-65
2022/04/28 05:08:37;0.00;0.00;0.62;0.00;0.00;0.62;3.50;2.50;;;25.30;20.70;;;;;;2247379;61;20376;-66
2022/04/28 05:11:29;0.00;0.00;0.62;0.00;0.00;0.62;3.47;2.13;;;25.30;20.70;;;;;;2247706;61;20450;-63
2022/04/28 05:14:25;0.00;0.00;0.62;0.00;0.00;0.62;3.30;2.97;;;25.30;20.80;;;;;;2247974;61;20447;-64
2022/04/28 05:17:10;0.00;0.00;0.62;0.00;0.00;0.62;2.60;2.40;;;25.30;20.80;;;;;;2248088;61;20439;-66
2022/04/28 05:20:07;0.00;0.00;0.62;0.00;0.00;0.62;2.80;2.40;;;25.30;20.80;;;;;;2248469;61;20816;-65
2022/04/28 05:23:11;0.00;0.00;0.62;0.00;0.00;0.62;3.00;2.00;;;25.20;20.80;;;;;;2247867;61;20930;-66
2022/04/28 05:26:24;0.00;0.00;0.62;0.00;0.00;0.62;3.50;2.30;;;25.20;20.80;;;;;;2248752;61;20363;-65
2022/04/28 05:29:19;0.00;0.00;0.62;0.00;0.00;0.62;3.80;2.67;;;25.20;20.80;;;;;;2248206;61;20939;-64
2022/04/28 05:32:23;0.00;0.00;0.62;0.00;0.00;0.62;2.53;1.93;;;25.20;20.90;;;;;;2248166;61;20475;-66
2022/04/28 05:35:29;0.00;0.00;0.62;0.00;0.00;0.62;3.40;2.70;;;25.10;20.90;;;;;;2248951;61;20363;-64
2022/04/28 05:38:14;0.00;0.00;0.62;0.00;0.00;0.62;2.60;2.40;;;25.20;21.00;;;;;;2247279;61;20372;-68
2022/04/28 05:40:59;0.00;0.00;0.62;0.00;0.00;0.62;3.80;2.47;;;25.10;20.90;;;;;;2247986;61;20430;-64
2022/04/28 05:46:48;0.00;0.00;0.62;0.00;0.00;0.62;2.80;2.37;;;25.10;21.00;;;;;;2248577;61;20892;-65
2022/04/28 05:49:33;0.00;0.00;0.62;0.00;0.00;0.62;4.93;2.63;;;25.10;21.00;;;;;;2253774;61;20387;-65
2022/04/28 05:52:21;0.00;0.00;0.62;0.00;0.00;0.62;5.93;2.90;;;25.10;21.00;;;;;;2246837;61;20983;-64
2022/04/28 05:55:09;0.00;0.00;0.62;0.00;0.00;0.62;4.40;2.90;;;25.10;21.00;;;;;;2248196;61;20939;-64
2022/04/28 05:57:56;0.00;0.00;0.62;0.00;0.00;0.62;2.90;2.33;;;25.00;21.00;;;;;;2248364;61;20391;-65
2022/04/28 06:00:42;0.00;0.00;0.62;0.00;0.00;0.62;3.00;2.30;;;25.10;21.10;;;;;;2247131;61;20360;-65
2022/04/28 06:03:27;0.00;0.00;0.62;0.00;0.00;0.62;2.80;2.30;;;25.00;21.00;;;;;;2248189;61;20419;-65
2022/04/28 06:06:25;0.00;0.00;0.62;0.00;0.00;0.62;3.10;2.30;;;25.00;21.10;;;;;;2247313;61;20461;-66
2022/04/28 06:09:16;0.00;0.00;0.62;0.00;0.00;0.62;2.73;2.53;;;25.00;21.10;;;;;;2248074;61;20418;-66
2022/04/28 06:12:01;0.00;0.00;0.62;0.00;0.00;0.62;4.13;2.20;;;25.00;21.10;;;;;;2252977;61;20947;-66
2022/04/28 06:14:51;0.00;0.00;0.62;0.00;0.00;0.62;4.57;2.30;;;25.00;21.10;;;;;;2247322;61;20427;-69
2022/04/28 06:18:14;0.00;0.00;0.62;0.00;0.00;0.62;5.20;2.97;;;25.00;21.10;;;;;;2239620;61;21000;-66
2022/04/28 06:21:00;0.00;0.00;0.62;0.00;0.00;0.62;3.17;2.47;;;25.00;21.10;;;;;;2236307;61;21207;-66
2022/04/28 06:23:56;0.00;0.00;0.62;0.00;0.00;0.62;2.60;2.27;;;25.00;21.10;;;;;;2247839;61;20378;-64
2022/04/28 06:26:43;0.00;0.00;0.62;0.00;0.00;0.62;3.40;2.67;;;24.90;21.00;;;;;;2249686;61;20399;-67
2022/04/28 06:29:28;0.00;0.00;0.62;0.00;0.00;0.62;4.60;2.40;;;25.00;21.20;;;;;;2246098;61;20384;-64
2022/04/28 06:32:16;0.00;0.00;0.62;0.00;0.00;0.62;3.77;2.50;;;24.90;21.20;;;;;;2246423;61;20450;-62
2022/04/28 06:35:25;0.00;0.00;0.62;0.00;0.00;0.62;3.87;3.10;;;24.90;21.30;;;;;;2247206;61;20414;-67
2022/04/28 06:38:10;0.00;0.00;0.62;0.00;0.00;0.62;4.43;2.70;;;24.90;21.30;;;;;;2247936;61;20396;-66
2022/04/28 06:40:56;0.00;0.00;0.62;0.00;0.00;0.62;4.50;3.00;;;24.90;21.40;;;;;;2247502;61;20383;-64
2022/04/28 06:43:42;0.00;0.00;0.62;0.00;0.00;0.62;3.10;2.73;;;24.90;21.40;;;;;;2249628;61;20451;-64
2022/04/28 06:46:56;0.00;0.00;0.62;0.00;0.00;0.62;5.33;3.03;;;24.90;21.40;;;;;;2248130;61;20790;-65
2022/04/28 06:49:43;0.00;0.00;0.62;0.00;0.00;0.62;4.90;3.47;;;24.90;21.40;;;;;;2247982;61;20395;-66
2022/04/28 06:53:03;0.00;0.00;0.62;0.00;0.00;0.62;3.90;2.67;;;24.90;21.40;;;;;;2247491;61;20813;-66
2022/04/28 06:55:50;0.00;0.00;0.62;0.00;0.00;0.62;3.27;2.73;;;24.90;21.40;;;;;;2247791;61;20407;-60
2022/04/28 06:58:37;0.00;0.00;0.62;0.00;0.00;0.62;2.87;2.20;;;24.90;21.40;;;;;;2246758;61;20938;-66
2022/04/28 07:01:27;0.00;0.00;0.62;0.00;0.00;0.62;4.40;2.90;;;24.90;21.40;;;;;;2247645;61;20434;-65
2022/04/28 07:04:12;0.00;0.00;0.62;0.00;0.00;0.62;3.17;2.47;;;24.90;21.40;;;;;;2247534;61;20431;-60
2022/04/28 07:06:58;0.00;0.00;0.62;0.00;0.00;0.62;4.90;3.00;;;24.90;21.40;;;;;;2247170;61;20391;-63
2022/04/28 07:09:43;0.00;0.00;0.62;0.00;0.00;0.62;3.90;2.50;;;24.90;21.40;;;;;;2247521;61;20391;-64
2022/04/28 07:12:28;0.00;0.00;0.62;0.00;0.00;0.62;4.10;2.50;;;24.90;21.40;;;;;;2247750;61;21028;-65
2022/04/28 07:15:15;0.00;0.00;0.62;0.00;0.00;0.62;3.13;2.37;;;24.90;21.40;;;;;;2247650;61;20387;-66
2022/04/28 07:18:11;0.00;0.00;0.62;0.00;0.00;0.62;2.40;2.20;;;24.90;21.40;;;;;;2247853;61;20415;-62
2022/04/28 07:20:59;0.00;0.00;0.62;0.00;0.00;0.62;5.33;2.83;;;24.90;21.40;;;;;;2246580;61;20438;-71
2022/04/28 07:23:44;0.00;0.00;0.62;0.00;0.00;0.62;3.90;2.50;;;24.90;21.40;;;;;;2247789;61;20904;-63
2022/04/28 07:26:29;0.00;0.00;0.62;0.00;0.00;0.62;2.77;2.13;;;25.00;21.40;;;;;;2247297;61;20454;-66
2022/04/28 07:29:13;0.00;0.00;0.62;0.00;0.00;0.62;2.90;1.93;;;25.00;21.40;;;;;;2247109;61;20822;-65
2022/04/28 07:32:20;0.00;0.00;0.62;0.00;0.00;0.62;3.27;1.90;;;24.90;21.30;;;;;;2247015;61;20379;-63
2022/04/28 07:35:38;0.00;0.00;0.62;0.00;0.00;0.62;3.00;2.00;;;25.00;21.40;;;;;;2243653;61;20431;-66
2022/04/28 07:38:55;0.00;0.00;0.62;0.00;0.00;0.62;2.90;2.20;;;25.00;21.40;;;;;;2244584;61;20427;-71
2022/04/28 07:41:50;0.00;0.00;0.62;0.00;0.00;0.62;2.83;1.83;;;25.00;21.40;;;;;;2246696;61;20796;-62
2022/04/28 07:44:36;0.00;0.00;0.62;0.00;0.00;0.62;4.03;2.57;;;25.00;21.40;;;;;;2246995;61;20943;-70
2022/04/28 07:47:21;0.00;0.00;0.62;0.00;0.00;0.62;3.00;2.13;;;25.00;21.40;;;;;;2247468;61;20384;-66
2022/04/28 07:50:29;0.00;0.00;0.62;0.00;0.00;0.62;2.60;1.93;;;25.00;21.40;;;;;;2239211;61;20393;-66
2022/04/28 07:53:26;0.00;0.00;0.62;0.00;0.00;0.62;4.33;2.30;;;25.00;21.40;;;;;;2244768;61;20417;-64
2022/04/28 07:56:13;0.00;0.00;0.62;0.00;0.00;0.62;4.00;2.40;;;25.00;21.40;;;;;;2242381;61;20365;-63
2022/04/28 07:58:59;0.00;0.00;0.62;0.00;0.00;0.62;4.23;2.33;;;25.00;21.40;;;;;;2244603;61;20429;-60
2022/04/28 08:01:57;0.00;0.00;0.62;0.00;0.00;0.62;4.03;2.10;;;25.00;21.40;;;;;;2244459;61;20389;-59
2022/04/28 08:04:43;0.00;0.00;0.62;0.00;0.00;0.62;1.83;1.63;;;25.00;21.30;;;;;;2244794;61;20517;-61
2022/04/28 08:07:28;0.00;0.00;0.62;0.00;0.00;0.62;2.60;1.80;;;25.10;21.30;;;;;;2240349;61;20902;-70
2022/04/28 08:10:14;0.00;0.00;0.62;0.00;0.00;0.62;2.37;1.73;;;25.10;21.30;;;;;;2242109;61;20393;-55
2022/04/28 08:12:59;0.00;0.00;0.62;0.00;0.00;0.62;2.77;1.93;;;25.10;21.20;;;;;;2244043;61;20473;-69
2022/04/28 08:16:07;0.00;0.00;0.62;0.00;0.00;0.62;2.23;1.77;;;25.10;21.40;;;;;;2240082;61;20381;-64
2022/04/28 08:18:59;0.00;0.00;0.62;0.00;0.00;0.62;3.63;1.90;;;25.10;21.20;;;;;;2244807;61;20420;-68
2022/04/28 08:21:55;0.00;0.00;0.62;0.00;0.00;0.62;4.23;2.00;;;25.10;21.20;;;;;;2244265;61;20850;-59
2022/04/28 08:24:40;0.00;0.00;0.62;0.00;0.00;0.62;4.90;2.33;;;25.10;21.30;;;;;;2242647;61;20518;-59
2022/04/28 08:27:26;0.00;0.00;0.62;0.00;0.00;0.62;3.87;2.30;;;25.10;21.30;;;;;;2244194;61;20409;-61
2022/04/28 08:30:11;0.00;0.00;0.62;0.00;0.00;0.62;2.70;1.70;;;25.10;21.30;;;;;;2245018;61;20799;-61
2022/04/28 08:32:56;0.00;0.00;0.62;0.00;0.00;0.62;3.17;1.97;;;25.10;21.20;;;;;;2245625;61;20393;-63
2022/04/28 08:35:41;0.00;0.00;0.62;0.00;0.00;0.62;2.17;1.43;;;25.10;21.20;;;;;;2243951;61;20372;-66
2022/04/28 08:38:27;0.00;0.00;0.62;0.00;0.00;0.62;2.20;1.60;;;25.20;21.30;;;;;;2242645;61;20974;-65
2022/04/28 08:41:18;0.00;0.00;0.62;0.00;0.00;0.62;2.93;1.67;;;25.10;21.30;;;;;;2244943;61;20846;-65
2022/04/28 08:44:33;0.00;0.00;0.62;0.00;0.00;0.62;2.40;1.57;;;25.20;21.40;;;;;;2240518;61;20408;-65
2022/04/28 08:47:38;0.00;0.00;0.62;0.00;0.00;0.62;1.90;1.43;;;25.20;21.40;;;;;;2245658;61;20373;-65
2022/04/28 08:50:40;0.00;0.00;0.62;0.00;0.00;0.62;1.97;1.27;;;25.20;21.50;;;;;;2241801;61;20413;-66
2022/04/28 08:53:28;0.00;0.00;0.62;0.00;0.00;0.62;2.33;1.33;;;25.20;21.50;;;;;;2245603;61;20361;-65
2022/04/28 08:56:12;0.00;0.00;0.62;0.00;0.00;0.62;2.40;1.97;;;25.20;21.60;;;;;;2240516;61;20422;-58
2022/04/28 08:58:57;0.00;0.00;0.62;0.00;0.00;0.62;3.50;1.60;;;25.20;21.50;;;;;;2242950;61;20360;-57
2022/04/28 09:01:43;0.00;0.00;0.62;0.00;0.00;0.62;2.77;1.67;;;25.30;21.50;;;;;;2242579;61;20627;-58
2022/04/28 09:04:57;0.00;0.00;0.62;0.00;0.00;0.62;2.30;1.53;;;25.20;21.40;;;;;;2240090;61;20462;-62
2022/04/28 09:08:21;0.00;0.00;0.62;0.00;0.00;0.62;2.20;1.43;;;25.30;21.40;;;;;;2231622;62;20371;-64
2022/04/28 09:11:40;0.00;0.00;0.62;0.00;0.00;0.62;2.93;1.53;;;25.30;21.50;;;;;;2226458;62;20815;-64
2022/04/28 09:14:44;0.00;0.00;0.62;0.00;0.00;0.62;2.70;1.50;;;25.30;21.50;;;;;;2235495;62;20959;-64
2022/04/28 09:17:41;0.00;0.00;0.62;0.00;0.00;0.62;2.33;1.40;;;25.30;21.50;;;;;;2235317;62;20434;-65
2022/04/28 09:20:28;0.00;0.00;0.62;0.00;0.00;0.62;2.47;1.80;;;25.40;21.60;;;;;;2234940;62;20432;-62
2022/04/28 09:23:18;0.00;0.00;0.62;0.00;0.00;0.62;1.90;1.10;;;25.40;21.60;;;;;;2243001;61;20408;-66
2022/04/28 09:26:07;0.00;0.00;0.62;0.00;0.00;0.62;2.93;1.50;;;25.40;21.70;;;;;;2245140;61;20370;-62
2022/04/28 09:28:57;0.00;0.00;0.62;0.00;0.00;0.62;2.57;1.37;;;25.40;21.70;;;;;;2245564;61;20813;-61
2022/04/28 09:31:44;0.00;0.00;0.62;0.00;0.00;0.62;2.03;1.57;;;25.40;21.70;;;;;;2242612;61;20922;-65
2022/04/28 09:34:53;0.00;0.00;0.62;0.00;0.00;0.62;2.27;1.47;;;25.50;21.80;;;;;;2239807;61;20923;-62
2022/04/28 09:37:58;0.00;0.00;0.62;0.00;0.00;0.62;2.00;1.13;;;25.50;21.80;;;;;;2240211;61;20374;-62
2022/04/28 09:43:49;0.00;0.00;0.62;0.00;0.00;0.62;2.80;1.23;;;25.50;21.80;;;;;;2245701;61;20397;-61
2022/04/28 09:46:41;0.00;0.00;0.62;0.00;0.00;0.62;2.43;1.50;;;25.50;21.90;;;;;;2245530;61;20370;-59
2022/04/28 09:49:28;0.00;0.00;0.62;0.00;0.00;0.62;1.90;1.20;;;25.60;21.90;;;;;;2242009;61;20822;-61
2022/04/28 09:52:35;0.00;0.00;0.62;0.00;0.00;0.62;1.67;1.07;;;25.60;21.90;;;;;;2239765;61;20380;-56
2022/04/28 09:55:45;0.00;0.00;0.62;0.00;0.00;0.62;1.53;1.20;;;25.60;21.90;;;;;;2239981;61;20425;-69
2022/04/28 09:58:45;0.00;0.00;0.62;0.00;0.00;0.62;3.00;1.47;;;25.70;22.00;;;;;;2242985;61;20417;-62
2022/04/28 10:01:30;0.00;0.00;0.62;0.00;0.00;0.62;2.60;1.33;;;25.70;22.00;;;;;;2245766;61;20381;-65
2022/04/28 10:04:16;0.00;0.00;0.62;0.00;0.00;0.62;2.00;1.30;;;25.70;22.00;;;;;;2243590;61;20925;-64
2022/04/28 10:07:21;0.00;0.00;0.62;0.00;0.00;0.62;2.80;1.33;;;25.70;22.00;;;;;;2241725;61;20361;-64
2022/04/28 10:10:07;0.00;0.00;0.62;0.00;0.00;0.62;2.30;1.50;;;25.70;22.10;;;;;;2242464;61;20406;-58
2022/04/28 10:12:54;0.00;0.00;0.62;0.00;0.00;0.62;4.77;1.27;;;25.70;22.10;;;;;;2244924;61;20421;-60
2022/04/28 10:15:48;0.00;0.00;0.62;0.00;0.00;0.62;7.90;1.87;;;25.80;22.10;;;;;;2245453;61;20373;-64
2022/04/28 10:18:41;0.00;0.00;0.62;0.00;0.00;0.62;2.93;1.27;;;25.80;22.10;;;;;;2242114;61;20902;-66
2022/04/28 10:21:33;0.00;0.00;0.62;0.00;0.00;0.62;1.90;1.40;;;25.80;22.20;;;;;;2242222;61;20569;-62
2022/04/28 10:33:42;0.00;0.00;0.62;0.00;0.00;0.62;1.60;1.30;;;26.00;22.30;;;;;;2245123;61;20885;-68
2022/04/28 10:36:27;0.00;0.00;0.62;0.00;0.00;0.62;1.87;1.20;;;26.00;22.30;;;;;;2240534;61;20469;-56
2022/04/28 10:39:11;0.00;0.00;0.62;0.00;0.00;0.62;1.80;1.30;;;26.00;22.30;;;;;;2240374;61;20386;-70
2022/04/28 10:41:56;0.00;0.00;0.62;0.00;0.00;0.62;1.37;0.90;;;26.00;22.30;;;;;;2239905;61;20449;-61
2022/04/28 10:44:51;0.00;0.00;0.62;0.00;0.00;0.62;1.90;1.20;;;26.10;22.40;;;;;;2240404;61;20369;-53
2022/04/28 10:47:38;0.00;0.00;0.62;0.00;0.00;0.62;2.30;1.37;;;26.10;22.40;;;;;;2239666;61;20374;-56
2022/04/28 10:50:24;0.00;0.00;0.62;0.00;0.00;0.62;1.70;1.17;;;26.10;22.30;;;;;;2239994;61;20389;-66
2022/04/28 10:53:10;0.00;0.00;0.62;0.00;0.00;0.62;2.53;1.30;;;26.20;22.40;;;;;;2240259;61;20365;-70
2022/04/28 10:55:55;0.00;0.00;0.62;0.00;0.00;0.62;2.07;1.30;;;26.20;22.40;;;;;;2239326;61;20365;-64
2022/04/28 10:58:40;0.00;0.00;0.62;0.00;0.00;0.62;1.70;1.00;;;26.20;22.40;;;;;;2240709;61;20451;-68
2022/04/28 11:01:29;0.00;0.00;0.62;0.00;0.00;0.62;2.03;1.23;;;26.30;22.50;;;;;;2239397;61;20377;-66
2022/04/28 11:04:20;0.00;0.00;0.62;0.00;0.00;0.62;1.83;1.27;;;26.30;22.50;;;;;;2239655;61;20780;-66
2022/04/28 11:07:07;0.00;0.00;0.62;0.00;0.00;0.62;1.60;1.13;;;26.30;22.50;;;;;;2240400;61;20439;-63
2022/04/28 11:09:57;0.00;0.00;0.62;0.00;0.00;0.62;1.40;1.10;;;26.30;22.50;;;;;;2240058;61;20393;-64
2022/04/28 11:12:44;0.00;0.00;0.62;0.00;0.00;0.62;1.77;1.10;;;26.40;22.50;;;;;;2242906;61;20417;-69
2022/04/28 11:15:32;0.00;0.00;0.62;0.00;0.00;0.62;1.60;1.10;;;26.40;22.60;;;;;;2242572;61;20450;-67
2022/04/28 11:18:18;0.00;0.00;0.62;0.00;0.00;0.62;2.93;1.20;;;26.50;22.60;;;;;;2241920;61;20775;-62
2022/04/28 11:21:05;0.00;0.00;0.62;0.00;0.00;0.62;1.53;1.10;;;26.50;22.60;;;;;;2245044;61;20409;-62
2022/04/28 11:23:51;0.00;0.00;0.62;0.00;0.00;0.62;1.90;1.03;;;26.50;22.50;;;;;;2244900;61;20390;-60
2022/04/28 11:26:42;0.00;0.00;0.62;0.00;0.00;0.62;1.60;1.10;;;26.60;22.50;;;;;;2242282;61;20746;-62
2022/04/28 11:29:46;0.00;0.00;0.62;0.00;0.00;0.62;1.80;0.90;;;26.60;22.50;;;;;;2245357;61;20413;-59
2022/04/28 11:32:30;0.00;0.00;0.62;0.00;0.00;0.62;1.90;1.23;;;26.60;22.50;;;;;;2239315;61;20526;-62
2022/04/28 11:35:17;0.00;0.00;0.62;0.00;0.00;0.62;2.23;1.17;;;26.70;22.50;;;;;;2240410;61;20376;-62
2022/04/28 11:38:02;0.00;0.00;0.62;0.00;0.00;0.62;1.77;1.10;;;26.70;22.50;;;;;;2240340;61;20370;-61
2022/04/28 11:40:58;0.00;0.00;0.62;0.00;0.00;0.62;1.90;1.20;;;26.70;22.50;;;;;;2239364;61;20457;-62
2022/04/28 11:43:43;0.00;0.00;0.62;0.00;0.00;0.62;1.80;1.20;;;26.80;22.50;;;;;;2240351;61;20385;-59